»·PEaware :: N78JW KAVX-KSAN

N78JW :: KAVX-KSAN

FLIGHT INFORMATION

Flight Status: Arrived
Operator: Privately registered:
United States
More flights under this callsign
Pilot: Jon W. (9193)
Aircraft: CESSNA 172 SKYHAWK
(C172)
More flights by this aircraft type
Origin: KAVX Catalina
United States
Destination: KSAN San Diego Intl-Lindbergh
United States
More flights between these airports :: More routes between these airports
Route: SXC V208 OCN V23 MZB
File this flight plan on PilotEdge
Remarks: I-8 rating
Altitude:
(Current/Filed)
5,000ft
Speed:
(Current/Filed)
117kts
Departed: 22-Nov-17 09:50 PM
Arrived: 22-Nov-17 10:57 PM
Distance/Time
Traveled:
74nm/1:07
Distance/Time
To Go:
Arrived

Flight Plot

Page will automatically refresh every two minutes.


Map Options




Map Legend


Flown Route
Filed Route
Departure Airport
Arrival Airport
Navaid (VOR, NDB)
Fix

Horizontal Profiles

Position Reports

Time Latitude Longitude Heading Altitude Ground
Speed
22-Nov-17 21:39 33.403580 -118.415740 144 1605ft 0kts
22-Nov-17 21:40 33.403580 -118.415740 144 1605ft 0kts
22-Nov-17 21:41 33.403580 -118.415740 144 1605ft 0kts
22-Nov-17 21:42 33.403580 -118.415740 144 1605ft 0kts
22-Nov-17 21:43 33.403575 -118.415736 144 1605ft 0kts
22-Nov-17 21:44 33.403568 -118.415730 144 1605ft 0kts
22-Nov-17 21:45 33.403562 -118.415725 144 1605ft 0kts
22-Nov-17 21:46 33.403556 -118.415719 144 1605ft 0kts
22-Nov-17 21:47 33.403549 -118.415714 144 1605ft 0kts
22-Nov-17 21:48 33.403544 -118.415709 144 1605ft 0kts
22-Nov-17 21:49 33.403537 -118.415703 144 1605ft 0kts
22-Nov-17 21:50 33.403529 -118.415697 144 1605ft 0kts
22-Nov-17 21:51 33.403522 -118.415690 144 1605ft 0kts
22-Nov-17 21:52 33.403490 -118.415595 80 1605ft 4kts
22-Nov-17 21:53 33.405746 -118.413836 53 1605ft 16kts
22-Nov-17 21:54 33.407188 -118.411627 342 1605ft 5kts
22-Nov-17 21:55 33.400456 -118.424190 240 1797ft 81kts
22-Nov-17 21:56 33.388367 -118.444236 234 2589ft 73kts
22-Nov-17 21:57 33.375911 -118.465729 234 3232ft 82kts
22-Nov-17 21:58 33.362447 -118.488811 234 3848ft 87kts
22-Nov-17 21:59 33.348311 -118.512587 234 4444ft 88kts
22-Nov-17 22:00 33.333631 -118.534793 236 4991ft 93kts
22-Nov-17 22:01 33.309169 -118.532874 104 5004ft 124kts
22-Nov-17 22:02 33.310158 -118.491039 82 5000ft 126kts
22-Nov-17 22:03 33.312675 -118.448985 82 5000ft 127kts
22-Nov-17 22:04 33.315121 -118.406868 82 5000ft 127kts
22-Nov-17 22:05 33.317436 -118.364513 82 4999ft 127kts
22-Nov-17 22:06 33.323398 -118.322888 70 5001ft 127kts
22-Nov-17 22:07 33.336600 -118.283915 61 5001ft 126kts
22-Nov-17 22:08 33.351040 -118.245364 61 5000ft 126kts
22-Nov-17 22:09 33.348862 -118.203837 105 5003ft 132kts
22-Nov-17 22:10 33.341351 -118.161596 96 4997ft 128kts
22-Nov-17 22:11 33.335663 -118.119376 95 4999ft 128kts
22-Nov-17 22:12 33.330052 -118.077147 95 5000ft 129kts
22-Nov-17 22:13 33.324426 -118.034840 95 5001ft 129kts
22-Nov-17 22:14 33.318766 -117.992379 95 5000ft 129kts
22-Nov-17 22:15 33.313110 -117.950071 95 5000ft 129kts
22-Nov-17 22:16 33.307421 -117.907624 96 5000ft 129kts
22-Nov-17 22:17 33.301738 -117.865337 96 5000ft 129kts
22-Nov-17 22:18 33.296035 -117.823005 96 5000ft 129kts
22-Nov-17 22:19 33.290302 -117.780537 96 5000ft 129kts
22-Nov-17 22:20 33.284497 -117.738198 97 5000ft 129kts
22-Nov-17 22:21 33.278085 -117.695967 97 5000ft 129kts
22-Nov-17 22:22 33.271696 -117.653615 97 5000ft 129kts
22-Nov-17 22:23 33.265295 -117.611388 97 5000ft 129kts
22-Nov-17 22:24 33.258981 -117.569184 95 5000ft 129kts
22-Nov-17 22:25 33.253925 -117.526621 95 5000ft 129kts
22-Nov-17 22:26 33.248792 -117.484214 95 5000ft 129kts
22-Nov-17 22:27 33.243588 -117.441703 95 5000ft 129kts
22-Nov-17 22:28 33.224534 -117.410805 166 5005ft 128kts
22-Nov-17 22:29 33.190637 -117.396656 162 5001ft 129kts
22-Nov-17 22:30 33.156666 -117.382297 162 5000ft 129kts
22-Nov-17 22:31 33.122763 -117.368025 162 5000ft 129kts
22-Nov-17 22:32 33.088804 -117.353739 162 5000ft 129kts
22-Nov-17 22:33 33.054745 -117.339443 162 5000ft 129kts
22-Nov-17 22:34 33.020801 -117.325198 162 5000ft 129kts
22-Nov-17 22:35 32.986695 -117.310893 162 5000ft 129kts
22-Nov-17 22:36 32.952860 -117.296706 162 5000ft 130kts
22-Nov-17 22:37 32.918567 -117.282357 162 5000ft 130kts
22-Nov-17 22:38 32.884363 -117.268049 162 5001ft 130kts
22-Nov-17 22:39 32.850292 -117.253807 162 5000ft 130kts
22-Nov-17 22:40 32.816800 -117.237583 144 4987ft 131kts
22-Nov-17 22:41 32.803936 -117.197887 103 4995ft 131kts
22-Nov-17 22:42 32.794412 -117.156629 102 4999ft 128kts
22-Nov-17 22:43 32.785168 -117.115582 102 4999ft 128kts
22-Nov-17 22:44 32.775798 -117.074456 102 5000ft 128kts
22-Nov-17 22:45 32.766383 -117.033539 102 4999ft 128kts
22-Nov-17 22:46 32.757072 -116.992532 102 5000ft 128kts
22-Nov-17 22:47 32.747928 -116.951688 102 5000ft 128kts
22-Nov-17 22:48 32.738694 -116.910850 102 5001ft 128kts
22-Nov-17 22:49 32.729334 -116.869851 102 5000ft 128kts
22-Nov-17 22:50 32.707825 -116.845308 207 5004ft 123kts
22-Nov-17 22:51 32.678108 -116.864677 213 4657ft 116kts
22-Nov-17 22:52 32.664596 -116.894663 281 4061ft 106kts
22-Nov-17 22:53 32.670308 -116.928400 285 4007ft 109kts
22-Nov-17 22:54 32.678974 -116.963998 285 3591ft 109kts
22-Nov-17 22:55 32.686919 -116.996843 285 3233ft 101kts
22-Nov-17 22:56 32.694676 -117.028904 285 2727ft 100kts
22-Nov-17 22:57 32.702567 -117.061995 285 2438ft 105kts
22-Nov-17 22:58 32.710568 -117.095281 286 1771ft 93kts
22-Nov-17 22:59 32.717506 -117.123639 285 1076ft 87kts
22-Nov-17 23:00 32.723943 -117.150119 286 627ft 72kts
22-Nov-17 23:01 32.729408 -117.172560 286 225ft 72kts
22-Nov-17 23:02 32.733307 -117.188011 335 18ft 10kts
22-Nov-17 23:03 32.734847 -117.187730 15 18ft 0kts
22-Nov-17 23:04 32.734853 -117.187727 15 18ft 0kts
22-Nov-17 23:05 32.734853 -117.187727 15 18ft 0kts

Navigation Log

Ident Type
1. KAVX Airport
2. SXC Navaid
3. AVOLS Fix
4. PACIF Fix
5. HUBRD Fix
6. OCN Navaid
7. HURSI Fix
8. CARIF Fix
9. MZB Navaid
10. KSAN Airport